Time;durP1;ratioP1;P1;durP2;ratioP2;P2;SDS_P1;SDS_P2;PMS_P1;PMS_P2;Temp;Humidity;BMP_temperature;BMP_pressure;BME280_temperature;BME280_humidity;BME280_pressure;Samples;Min_cycle;Max_cycle;Signal;HPM_P1;HPM_P2
2022/07/23 00:00:20;;;;;;;4.67;1.27;;;22.70;91.30;;;;;;5070122;28;20209;-66
2022/07/23 00:02:47;;;;;;;2.57;1.20;;;22.70;91.50;;;;;;5082742;28;20217;-66
2022/07/23 00:05:13;;;;;;;2.63;1.30;;;22.70;91.20;;;;;;5089195;28;20194;-67
2022/07/23 00:07:40;;;;;;;2.60;1.40;;;22.60;91.40;;;;;;5073770;28;20559;-68
2022/07/23 00:10:07;;;;;;;5.33;1.50;;;22.60;91.20;;;;;;5089335;28;20244;-65
2022/07/23 00:12:34;;;;;;;2.67;1.40;;;22.60;91.40;;;;;;5088930;28;20308;-67
2022/07/23 00:15:01;;;;;;;2.23;1.30;;;22.60;91.10;;;;;;5090357;28;20277;-67
2022/07/23 00:17:27;;;;;;;2.50;1.30;;;22.60;91.40;;;;;;5088554;28;20284;-65
2022/07/23 00:19:53;;;;;;;7.93;1.20;;;22.60;91.40;;;;;;5067123;28;20189;-67
2022/07/23 00:22:19;;;;;;;4.80;1.43;;;22.60;91.10;;;;;;5077262;28;20258;-70
2022/07/23 00:24:46;;;;;;;5.37;1.50;;;22.60;91.00;;;;;;5090011;28;20673;-66
2022/07/23 00:27:12;;;;;;;1.77;1.40;;;22.60;91.10;;;;;;5086497;28;20198;-66
2022/07/23 00:29:38;;;;;;;5.23;1.20;;;22.60;91.20;;;;;;5064865;28;20680;-68
2022/07/23 00:32:05;;;;;;;4.33;1.50;;;22.60;91.10;;;;;;5072377;28;20293;-65
2022/07/23 00:34:31;;;;;;;1.70;1.20;;;22.60;91.10;;;;;;5088539;28;20186;-66
2022/07/23 00:36:57;;;;;;;3.77;1.20;;;22.60;90.90;;;;;;5087154;28;20206;-65
2022/07/23 00:39:25;;;;;;;3.30;1.50;;;22.60;91.20;;;;;;5088720;28;20193;-65
2022/07/23 00:41:52;;;;;;;2.20;1.55;;;22.60;91.20;;;;;;5087753;28;20236;-67
2022/07/23 00:44:25;;;;;;;3.33;1.50;;;22.60;91.20;;;;;;5086590;28;20194;-65
2022/07/23 00:46:55;;;;;;;2.77;1.43;;;22.60;91.20;;;;;;5087210;28;20251;-68
2022/07/23 00:49:24;;;;;;;2.37;1.20;;;22.50;90.80;;;;;;5072898;28;20224;-65
2022/07/23 00:51:51;;;;;;;1.43;1.17;;;22.60;90.70;;;;;;5069084;28;20214;-69
2022/07/23 00:54:19;;;;;;;2.17;1.27;;;22.60;90.60;;;;;;5053113;28;20484;-66
2022/07/23 00:56:47;;;;;;;2.83;1.20;;;22.60;90.40;;;;;;5095650;28;20209;-65
2022/07/23 00:59:14;;;;;;;3.47;1.27;;;22.60;90.70;;;;;;5085710;28;20182;-66
2022/07/23 01:01:42;;;;;;;4.73;1.40;;;22.60;91.00;;;;;;5087840;28;20190;-66
2022/07/23 01:04:08;;;;;;;2.77;1.40;;;22.60;90.50;;;;;;5086216;28;20657;-65
2022/07/23 01:06:36;;;;;;;4.28;1.60;;;22.60;90.50;;;;;;5087788;28;20182;-64
2022/07/23 01:09:07;;;;;;;6.28;1.45;;;22.60;90.70;;;;;;5082549;28;20210;-67
2022/07/23 01:11:36;;;;;;;14.97;2.03;;;22.60;90.60;;;;;;5086926;28;20244;-65
2022/07/23 01:14:17;;;;;;;1.93;1.30;;;22.60;90.50;;;;;;5088383;28;20186;-65
2022/07/23 01:16:46;;;;;;;3.67;1.40;;;22.60;90.60;;;;;;5088346;28;20231;-66
2022/07/23 01:19:14;;;;;;;3.60;1.67;;;22.60;90.50;;;;;;5086482;28;20197;-64
2022/07/23 01:21:44;;;;;;;2.45;1.20;;;22.50;90.30;;;;;;5087874;28;20190;-66
2022/07/23 01:24:12;;;;;;;4.63;1.50;;;22.50;90.30;;;;;;5087401;28;20238;-65
2022/07/23 01:26:43;;;;;;;2.77;1.30;;;22.50;90.70;;;;;;5059494;28;20695;-65
2022/07/23 01:29:10;;;;;;;3.87;1.57;;;22.50;90.30;;;;;;5067104;28;20275;-68
2022/07/23 01:31:37;;;;;;;2.30;1.40;;;22.50;90.30;;;;;;5070455;28;20260;-65
2022/07/23 01:34:04;;;;;;;2.67;1.47;;;22.50;90.30;;;;;;5088091;28;20242;-65
2022/07/23 01:36:30;;;;;;;3.60;1.30;;;22.50;90.50;;;;;;5064628;28;20199;-65
2022/07/23 01:38:56;;;;;;;2.40;1.33;;;22.50;90.60;;;;;;5088101;28;20183;-65
2022/07/23 01:41:23;;;;;;;3.13;1.40;;;22.50;90.70;;;;;;5088008;28;20256;-66
2022/07/23 01:43:49;;;;;;;6.13;1.43;;;22.40;90.70;;;;;;5069893;28;20201;-66
2022/07/23 01:46:15;;;;;;;3.13;1.43;;;22.40;90.40;;;;;;5057565;28;20543;-65
2022/07/23 01:48:42;;;;;;;1.70;1.20;;;22.30;90.40;;;;;;5068062;28;20186;-66
2022/07/23 01:51:09;;;;;;;2.40;1.17;;;22.30;90.60;;;;;;5088061;28;20218;-67
2022/07/23 01:53:35;;;;;;;4.20;1.20;;;22.30;90.30;;;;;;5070083;28;20175;-65
2022/07/23 01:56:03;;;;;;;2.97;1.30;;;22.30;90.40;;;;;;5080051;28;20183;-64
2022/07/23 01:58:30;;;;;;;3.67;1.37;;;22.20;90.30;;;;;;5066043;28;20242;-65
2022/07/23 02:00:56;;;;;;;6.23;1.30;;;22.20;89.90;;;;;;5083355;28;20198;-64
2022/07/23 02:03:23;;;;;;;7.40;1.27;;;22.10;90.10;;;;;;5068005;28;20190;-66
2022/07/23 02:05:49;;;;;;;4.23;1.30;;;22.20;90.30;;;;;;5086764;28;20197;-68
2022/07/23 02:08:16;;;;;;;4.53;1.47;;;22.10;90.20;;;;;;5069362;28;20290;-64
2022/07/23 02:10:42;;;;;;;3.03;1.30;;;22.10;90.00;;;;;;5068383;28;20201;-66
2022/07/23 02:13:10;;;;;;;1.73;1.13;;;22.10;89.90;;;;;;5085957;28;20251;-66
2022/07/23 02:15:36;;;;;;;2.23;1.20;;;22.10;90.00;;;;;;5088524;28;20174;-64
2022/07/23 02:18:03;;;;;;;2.40;1.70;;;22.10;89.50;;;;;;5085054;28;20248;-68
2022/07/23 02:20:29;;;;;;;2.50;1.60;;;22.20;89.80;;;;;;5086306;28;20186;-66
2022/07/23 02:22:55;;;;;;;3.83;1.47;;;22.20;90.00;;;;;;5076056;28;20189;-66
2022/07/23 02:25:21;;;;;;;4.93;1.30;;;22.30;89.80;;;;;;5068365;28;20190;-66
2022/07/23 02:27:48;;;;;;;2.33;1.27;;;22.30;90.00;;;;;;5067307;28;20201;-67
2022/07/23 02:30:14;;;;;;;3.50;1.50;;;22.30;90.40;;;;;;5055770;28;20183;-69
2022/07/23 02:32:40;;;;;;;1.77;1.37;;;22.30;90.20;;;;;;5072447;28;20217;-65
2022/07/23 02:35:07;;;;;;;2.90;1.30;;;22.30;90.10;;;;;;5064801;28;20301;-65
2022/07/23 02:37:37;;;;;;;2.37;1.30;;;22.30;90.30;;;;;;5066238;28;20193;-67
2022/07/23 02:40:04;;;;;;;4.13;1.50;;;22.30;89.80;;;;;;5086331;28;20278;-68
2022/07/23 02:42:30;;;;;;;2.53;1.23;;;22.30;89.90;;;;;;5085774;28;20288;-67
2022/07/23 02:44:57;;;;;;;3.00;1.30;;;22.30;89.60;;;;;;5087169;28;20190;-66
2022/07/23 02:47:23;;;;;;;4.83;1.30;;;22.30;89.80;;;;;;5087181;28;20194;-65
2022/07/23 02:49:49;;;;;;;5.83;1.57;;;22.30;89.80;;;;;;5085427;28;20281;-65
2022/07/23 02:52:16;;;;;;;1.60;1.40;;;22.30;89.50;;;;;;5086005;28;20301;-64
2022/07/23 02:54:44;;;;;;;1.93;1.30;;;22.30;89.30;;;;;;5087760;28;20178;-67
2022/07/23 02:57:10;;;;;;;2.83;1.43;;;22.30;89.00;;;;;;5073457;28;20191;-63
2022/07/23 02:59:36;;;;;;;6.17;1.57;;;22.30;89.20;;;;;;5067188;28;20186;-63
2022/07/23 03:02:02;;;;;;;3.17;1.40;;;22.30;88.40;;;;;;5065277;28;20194;-64
2022/07/23 03:04:32;;;;;;;2.33;1.57;;;22.30;88.20;;;;;;5075849;28;20616;-65
2022/07/23 03:06:58;;;;;;;3.23;1.80;;;22.30;88.10;;;;;;5050777;28;20247;-65
2022/07/23 03:09:24;;;;;;;4.70;1.50;;;22.30;88.00;;;;;;5084275;28;20258;-64
2022/07/23 03:11:50;;;;;;;3.30;1.13;;;22.30;88.00;;;;;;5080838;28;20527;-64
2022/07/23 03:14:16;;;;;;;2.60;1.30;;;22.30;88.10;;;;;;5089063;28;20596;-63
2022/07/23 03:16:43;;;;;;;4.60;1.40;;;22.30;88.10;;;;;;5086157;28;20206;-65
2022/07/23 03:19:10;;;;;;;3.83;1.30;;;22.40;88.00;;;;;;5074242;28;20182;-65
2022/07/23 03:21:40;;;;;;;2.83;1.60;;;22.40;88.30;;;;;;5089000;28;20642;-63
2022/07/23 03:24:10;;;;;;;4.23;1.50;;;22.40;88.60;;;;;;5076948;28;20186;-65
2022/07/23 03:26:36;;;;;;;2.37;1.73;;;22.30;88.50;;;;;;5089363;28;20190;-64
2022/07/23 03:29:04;;;;;;;2.57;1.40;;;22.30;88.60;;;;;;5081153;28;20273;-63
2022/07/23 03:31:32;;;;;;;4.17;1.40;;;22.30;88.30;;;;;;5091187;28;20340;-67
2022/07/23 03:33:59;;;;;;;4.50;1.50;;;22.30;88.70;;;;;;5074324;28;20575;-66
2022/07/23 03:36:26;;;;;;;2.10;1.30;;;22.30;89.10;;;;;;5075293;28;20186;-65
2022/07/23 03:38:53;;;;;;;1.90;1.40;;;22.30;88.70;;;;;;5087546;28;20198;-65
2022/07/23 03:41:22;;;;;;;2.73;1.40;;;22.30;88.80;;;;;;5073115;28;20223;-63
2022/07/23 03:43:48;;;;;;;3.03;1.60;;;22.30;89.20;;;;;;5062091;28;20202;-64
2022/07/23 03:46:14;;;;;;;2.03;1.30;;;22.30;88.80;;;;;;5075899;28;20197;-64
2022/07/23 03:48:41;;;;;;;5.73;1.77;;;22.30;89.20;;;;;;5089447;28;20198;-63
2022/07/23 03:51:08;;;;;;;3.10;1.50;;;22.30;89.50;;;;;;5074242;28;20222;-66
2022/07/23 03:53:34;;;;;;;2.33;1.50;;;22.30;89.90;;;;;;5087682;28;20273;-62
2022/07/23 03:56:00;;;;;;;4.33;1.37;;;22.30;89.20;;;;;;5078046;28;20200;-67
2022/07/23 03:58:27;;;;;;;5.60;1.50;;;22.30;88.90;;;;;;5084010;28;20327;-69
2022/07/23 04:00:53;;;;;;;6.87;1.43;;;22.30;89.20;;;;;;5050806;28;20194;-64
2022/07/23 04:03:19;;;;;;;3.47;1.20;;;22.40;89.40;;;;;;5089581;28;20197;-63
2022/07/23 04:05:45;;;;;;;6.90;1.70;;;22.50;89.20;;;;;;5090434;28;20255;-64
2022/07/23 04:08:12;;;;;;;3.33;1.37;;;22.50;87.90;;;;;;5071312;28;20186;-65
2022/07/23 04:10:38;;;;;;;3.88;1.20;;;22.60;88.30;;;;;;5090624;28;20182;-63
2022/07/23 04:13:04;;;;;;;6.00;1.17;;;22.60;89.20;;;;;;5078878;28;20268;-65
2022/07/23 04:15:30;;;;;;;2.60;1.10;;;22.60;89.30;;;;;;5070686;28;20186;-66
2022/07/23 04:17:57;;;;;;;4.00;1.40;;;22.70;90.10;;;;;;5068990;28;20259;-65
2022/07/23 04:20:24;;;;;;;4.10;1.60;;;22.70;89.70;;;;;;5090004;28;20520;-67
2022/07/23 04:22:50;;;;;;;3.27;1.30;;;22.70;89.40;;;;;;5089288;28;20186;-67
2022/07/23 04:25:17;;;;;;;1.87;1.17;;;22.80;89.40;;;;;;5080088;28;20189;-66
2022/07/23 04:27:43;;;;;;;3.97;1.50;;;22.80;90.00;;;;;;5070700;28;20276;-65
2022/07/23 04:30:10;;;;;;;3.73;1.23;;;22.90;90.10;;;;;;5081538;28;20190;-67
2022/07/23 04:32:36;;;;;;;3.20;1.30;;;22.90;90.20;;;;;;5085640;28;20260;-67
2022/07/23 04:35:03;;;;;;;2.05;1.20;;;23.00;90.30;;;;;;5082549;28;20190;-67
2022/07/23 04:37:29;;;;;;;8.00;1.57;;;23.10;89.90;;;;;;5084394;28;20193;-66
2022/07/23 04:39:55;;;;;;;1.90;1.17;;;23.10;90.00;;;;;;5088558;28;20190;-66
2022/07/23 04:42:23;;;;;;;1.80;1.10;;;23.20;90.10;;;;;;5082452;28;20661;-65
2022/07/23 04:44:50;;;;;;;4.97;1.50;;;23.40;90.20;;;;;;5069803;28;20197;-65
2022/07/23 04:47:16;;;;;;;3.75;1.67;;;23.50;91.00;;;;;;5075270;28;20198;-68
2022/07/23 04:49:42;;;;;;;4.72;1.30;;;23.60;91.30;;;;;;5085421;28;20206;-68
2022/07/23 04:52:08;;;;;;;1.90;1.33;;;23.60;91.50;;;;;;5075900;28;20233;-67
2022/07/23 04:54:35;;;;;;;1.85;1.30;;;23.80;91.10;;;;;;5083138;28;20222;-65
2022/07/23 04:57:01;;;;;;;3.65;1.63;;;23.90;91.00;;;;;;5086801;28;20225;-65
2022/07/23 04:59:27;;;;;;;4.13;1.27;;;24.00;91.00;;;;;;5075635;28;20201;-65
2022/07/23 05:01:54;;;;;;;2.47;1.42;;;24.10;90.90;;;;;;5066812;28;20186;-69
2022/07/23 05:04:20;;;;;;;3.30;1.33;;;24.20;90.80;;;;;;5045624;28;20194;-66
2022/07/23 05:06:47;;;;;;;1.60;1.10;;;24.20;90.80;;;;;;5085769;28;20187;-67
2022/07/23 05:09:13;;;;;;;1.80;1.25;;;24.30;90.80;;;;;;5051331;28;20281;-67
2022/07/23 05:11:39;;;;;;;5.05;1.45;;;24.30;91.20;;;;;;5067289;28;20214;-66
2022/07/23 05:14:06;;;;;;;5.75;1.52;;;24.30;91.10;;;;;;5087308;28;20631;-68
2022/07/23 05:16:32;;;;;;;3.25;1.40;;;24.30;91.00;;;;;;5088665;28;20210;-67
2022/07/23 05:18:59;;;;;;;2.13;1.35;;;24.30;91.10;;;;;;5088001;28;20182;-66
2022/07/23 05:21:29;;;;;;;1.55;1.27;;;24.40;90.80;;;;;;5069738;28;20288;-66
2022/07/23 05:23:55;;;;;;;2.42;1.30;;;24.40;90.60;;;;;;5051477;28;20200;-67
2022/07/23 05:26:22;;;;;;;3.72;1.60;;;24.50;90.40;;;;;;5087393;28;20193;-67
2022/07/23 05:28:51;;;;;;;6.35;1.33;;;24.50;90.30;;;;;;5057284;28;20186;-66
2022/07/23 05:31:20;;;;;;;5.90;1.30;;;24.50;90.20;;;;;;5085700;28;20313;-66
2022/07/23 05:33:47;;;;;;;1.90;1.30;;;24.60;89.30;;;;;;5075631;28;20184;-66
2022/07/23 05:36:16;;;;;;;3.60;1.30;;;24.60;90.40;;;;;;5085265;28;20263;-69
2022/07/23 05:38:42;;;;;;;7.53;1.45;;;24.70;89.30;;;;;;5083996;28;20692;-67
2022/07/23 05:41:08;;;;;;;3.13;1.30;;;24.80;88.00;;;;;;5070665;28;20193;-66
2022/07/23 05:43:35;;;;;;;6.78;1.70;;;24.90;87.00;;;;;;5088899;28;20639;-66
2022/07/23 05:46:01;;;;;;;2.33;1.50;;;25.00;86.50;;;;;;5083473;28;20182;-68
2022/07/23 05:48:27;;;;;;;7.53;1.35;;;25.20;85.60;;;;;;5085254;28;20649;-67
2022/07/23 05:50:53;;;;;;;4.28;1.58;;;25.30;87.00;;;;;;5085344;28;20654;-67
2022/07/23 05:53:20;;;;;;;2.67;1.30;;;25.30;87.20;;;;;;5080363;28;20183;-66
2022/07/23 05:55:46;;;;;;;2.95;1.25;;;25.30;86.90;;;;;;5076376;28;20213;-66
2022/07/23 05:58:12;;;;;;;4.88;1.40;;;25.40;87.10;;;;;;5087845;28;20243;-68
2022/07/23 06:00:39;;;;;;;7.78;1.55;;;25.50;87.50;;;;;;5079547;28;20647;-69
2022/07/23 06:03:05;;;;;;;4.75;1.90;;;25.60;85.60;;;;;;5085150;28;20183;-66
2022/07/23 06:05:31;;;;;;;9.38;1.70;;;25.80;85.40;;;;;;5088264;28;20251;-64
2022/07/23 06:07:58;;;;;;;5.20;1.40;;;25.90;86.10;;;;;;5068835;28;20631;-64
2022/07/23 06:10:24;;;;;;;2.97;1.50;;;26.00;84.70;;;;;;5087641;28;20224;-67
2022/07/23 06:12:51;;;;;;;3.85;1.50;;;26.10;84.30;;;;;;5064197;28;20237;-63
2022/07/23 06:15:18;;;;;;;5.43;1.50;;;26.20;85.10;;;;;;5064971;28;20194;-63
2022/07/23 06:17:44;;;;;;;2.92;1.45;;;26.30;84.50;;;;;;5079785;28;20210;-66
2022/07/23 06:20:11;;;;;;;4.75;1.48;;;26.40;84.90;;;;;;5083189;28;20816;-63
2022/07/23 06:22:37;;;;;;;13.05;1.92;;;26.60;86.10;;;;;;5063321;28;20285;-63
2022/07/23 06:25:04;;;;;;;2.58;1.40;;;26.70;86.20;;;;;;5085139;28;20271;-63
2022/07/23 06:27:31;;;;;;;2.47;1.33;;;26.80;88.50;;;;;;5062350;28;20191;-66
2022/07/23 06:29:57;;;;;;;5.30;1.40;;;26.90;88.50;;;;;;5054996;28;20198;-66
2022/07/23 06:32:24;;;;;;;3.83;1.52;;;27.00;88.70;;;;;;5081801;28;20619;-64
2022/07/23 06:34:50;;;;;;;10.57;1.80;;;27.00;89.70;;;;;;5082614;28;20175;-65
2022/07/23 06:37:17;;;;;;;6.00;1.70;;;27.10;90.40;;;;;;5084366;28;20183;-64
2022/07/23 06:39:44;;;;;;;2.63;1.67;;;27.10;91.00;;;;;;5086218;28;20269;-63
2022/07/23 06:42:12;;;;;;;5.63;1.70;;;27.20;91.60;;;;;;5074960;28;20201;-63
2022/07/23 06:44:38;;;;;;;6.60;1.90;;;27.30;91.90;;;;;;5085126;28;20208;-65
2022/07/23 06:47:05;;;;;;;2.70;1.52;;;27.40;93.00;;;;;;5081924;28;20182;-63
2022/07/23 06:49:32;;;;;;;5.15;1.73;;;27.40;93.20;;;;;;5070276;28;20217;-67
2022/07/23 06:51:58;;;;;;;4.75;1.48;;;27.50;93.30;;;;;;5084217;28;20230;-64
2022/07/23 06:54:24;;;;;;;3.60;1.63;;;27.60;93.70;;;;;;5083137;28;20659;-64
2022/07/23 06:56:55;;;;;;;6.80;1.67;;;27.70;92.80;;;;;;5049845;28;20639;-65
2022/07/23 06:59:23;;;;;;;3.17;1.55;;;27.80;93.30;;;;;;5085189;28;20194;-66
2022/07/23 07:01:50;;;;;;;3.33;1.55;;;27.90;93.60;;;;;;5087791;28;20317;-64
2022/07/23 07:04:16;;;;;;;5.47;1.67;;;28.00;94.00;;;;;;5083523;28;20246;-65
2022/07/23 07:06:43;;;;;;;8.85;1.80;;;28.00;94.00;;;;;;5087487;28;20194;-66
2022/07/23 07:09:11;;;;;;;8.57;2.00;;;28.10;94.60;;;;;;5082674;28;20207;-65
2022/07/23 07:11:39;;;;;;;4.38;1.60;;;28.20;95.30;;;;;;5083247;28;20238;-67
2022/07/23 07:14:06;;;;;;;2.83;1.52;;;28.30;95.20;;;;;;5087741;28;20524;-68
2022/07/23 07:16:32;;;;;;;3.05;1.50;;;28.30;95.70;;;;;;5084322;28;20202;-67
2022/07/23 07:18:59;;;;;;;5.57;2.20;;;28.30;95.60;;;;;;5080899;28;20234;-66
2022/07/23 07:21:25;;;;;;;3.55;1.42;;;28.30;95.50;;;;;;5071068;28;20202;-65
2022/07/23 07:23:52;;;;;;;7.70;1.60;;;28.50;95.20;;;;;;5089943;28;21375;-68
2022/07/23 07:26:18;;;;;;;4.18;1.85;;;28.50;95.30;;;;;;5082645;28;20453;-66
2022/07/23 07:28:44;;;;;;;3.42;1.40;;;28.60;95.30;;;;;;5082119;28;20189;-66
2022/07/23 07:31:15;;;;;;;2.20;1.50;;;28.60;95.20;;;;;;5080076;28;20563;-63
2022/07/23 07:33:47;;;;;;;5.13;1.85;;;28.70;95.50;;;;;;5083171;28;20182;-64
2022/07/23 07:36:14;;;;;;;3.80;1.67;;;28.80;96.30;;;;;;5083822;28;20197;-65
2022/07/23 07:38:40;;;;;;;9.50;1.80;;;28.90;97.30;;;;;;5084352;28;20995;-65
2022/07/23 07:41:07;;;;;;;3.78;1.70;;;29.00;97.20;;;;;;5087104;28;20174;-63
2022/07/23 07:43:33;;;;;;;7.30;1.90;;;29.00;97.60;;;;;;5066710;28;20190;-69
2022/07/23 07:46:00;;;;;;;8.77;1.98;;;29.10;97.90;;;;;;5083858;28;20198;-69
2022/07/23 07:48:26;;;;;;;3.70;1.77;;;29.20;98.30;;;;;;5066879;28;20182;-66
2022/07/23 07:50:53;;;;;;;11.38;2.03;;;29.20;97.90;;;;;;5085137;28;20666;-64
2022/07/23 07:53:19;;;;;;;3.40;1.67;;;29.20;97.90;;;;;;5084841;28;20245;-64
2022/07/23 07:55:46;;;;;;;6.47;1.80;;;29.30;97.80;;;;;;5088149;28;20178;-66
2022/07/23 07:58:12;;;;;;;2.70;1.55;;;29.40;98.10;;;;;;5077372;28;20186;-65
2022/07/23 08:00:38;;;;;;;6.22;1.80;;;29.50;97.80;;;;;;5067548;28;20255;-66
2022/07/23 08:03:05;;;;;;;5.55;1.70;;;29.50;98.00;;;;;;5078300;28;20203;-68
2022/07/23 08:05:31;;;;;;;8.07;1.90;;;29.60;98.10;;;;;;5086510;28;20388;-66
2022/07/23 08:08:00;;;;;;;3.83;1.60;;;29.60;97.80;;;;;;5071441;28;20194;-66
2022/07/23 08:10:28;;;;;;;7.75;1.70;;;29.60;97.40;;;;;;5050153;28;20336;-65
2022/07/23 08:12:56;;;;;;;8.68;1.92;;;29.70;98.20;;;;;;5088605;28;20259;-65
2022/07/23 08:15:26;;;;;;;7.40;1.70;;;29.80;98.60;;;;;;5070013;28;20186;-69
2022/07/23 08:17:52;;;;;;;5.07;1.98;;;29.90;98.20;;;;;;5062655;28;20216;-65
2022/07/23 08:20:21;;;;;;;6.22;1.83;;;29.90;97.70;;;;;;5087779;28;20653;-66
2022/07/23 08:22:58;;;;;;;9.30;1.80;;;30.00;97.60;;;;;;5085608;28;20190;-66
2022/07/23 08:25:38;;;;;;;6.85;1.77;;;30.00;97.60;;;;;;5081828;28;20181;-67
2022/07/23 08:28:07;;;;;;;9.63;1.48;;;30.10;98.00;;;;;;5085980;28;20197;-66
2022/07/23 08:30:36;;;;;;;3.75;1.70;;;30.10;97.70;;;;;;5085531;28;20213;-66
2022/07/23 08:33:15;;;;;;;6.18;2.17;;;30.10;97.40;;;;;;5064848;28;20213;-67
2022/07/23 08:35:52;;;;;;;5.00;1.70;;;30.20;97.60;;;;;;5065418;28;20631;-66
2022/07/23 08:38:21;;;;;;;7.82;1.92;;;30.20;97.60;;;;;;5081913;28;20182;-67
2022/07/23 08:40:54;;;;;;;10.02;2.33;;;30.20;98.20;;;;;;5047277;28;20178;-65
2022/07/23 08:43:24;;;;;;;12.18;2.00;;;30.30;98.40;;;;;;5063482;28;20201;-67
2022/07/23 08:45:58;;;;;;;8.90;2.00;;;30.40;98.70;;;;;;5085252;28;20190;-66
2022/07/23 08:48:28;;;;;;;6.38;2.17;;;30.50;99.40;;;;;;5086713;28;20185;-67
2022/07/23 08:50:58;;;;;;;4.80;2.03;;;30.60;99.50;;;;;;5083638;28;20263;-67
2022/07/23 08:53:27;;;;;;;8.05;2.33;;;30.70;99.60;;;;;;5075216;28;20243;-66
2022/07/23 08:55:58;;;;;;;5.90;2.15;;;30.70;99.90;;;;;;5084529;28;20279;-66
2022/07/23 08:58:25;;;;;;;7.90;1.90;;;30.80;99.90;;;;;;5067689;28;20883;-65
2022/07/23 09:00:52;;;;;;;4.78;2.13;;;30.90;99.90;;;;;;5086010;28;20178;-66
2022/07/23 09:03:31;;;;;;;14.88;2.30;;;30.80;99.90;;;;;;5072624;28;20223;-66
2022/07/23 09:06:00;;;;;;;6.05;2.13;;;30.90;99.90;;;;;;5089442;28;20194;-67
2022/07/23 09:08:43;;;;;;;10.60;2.60;;;30.90;99.90;;;;;;5063744;28;20183;-66
2022/07/23 09:11:19;;;;;;;3.40;2.00;;;30.90;99.90;;;;;;5062306;28;20710;-65
2022/07/23 09:13:58;;;;;;;7.15;2.30;;;30.80;99.90;;;;;;5081154;28;20175;-67
2022/07/23 09:16:31;;;;;;;5.07;2.10;;;30.90;99.90;;;;;;5068162;28;22042;-65
2022/07/23 09:18:59;;;;;;;9.15;2.30;;;31.00;99.90;;;;;;5080427;28;20243;-65
2022/07/23 09:21:32;;;;;;;7.35;2.10;;;31.20;99.90;;;;;;5085717;28;20194;-67
2022/07/23 09:24:06;;;;;;;7.88;1.98;;;31.30;99.90;;;;;;5070147;28;20856;-65
2022/07/23 09:26:47;;;;;;;7.97;2.20;;;31.00;99.90;;;;;;5063726;28;20251;-68
2022/07/23 09:29:16;;;;;;;7.13;2.05;;;31.10;99.90;;;;;;5084828;28;20194;-65
2022/07/23 09:32:02;;;;;;;8.68;2.60;;;31.20;99.90;;;;;;5082913;28;20588;-68
2022/07/23 09:34:35;;;;;;;5.57;2.10;;;31.10;99.90;;;;;;5065438;28;20190;-66
2022/07/23 09:37:18;;;;;;;9.50;2.63;;;31.20;99.90;;;;;;5085148;28;20216;-65
2022/07/23 09:39:47;;;;;;;5.15;1.83;;;31.40;99.90;;;;;;5085473;28;20567;-68
2022/07/23 09:42:25;;;;;;;5.85;2.20;;;31.20;99.90;;;;;;5083052;28;20247;-67
2022/07/23 09:44:55;;;;;;;7.72;2.10;;;31.10;99.90;;;;;;5067168;28;20218;-66
2022/07/23 09:47:25;;;;;;;10.23;2.40;;;31.10;99.90;;;;;;5086436;28;20496;-65
2022/07/23 09:50:20;;;;;;;4.35;1.95;;;31.20;99.90;;;;;;5080564;28;20240;-67
2022/07/23 09:52:49;;;;;;;7.35;2.17;;;31.20;99.90;;;;;;5074931;28;20225;-67
2022/07/23 09:55:18;;;;;;;8.40;2.40;;;31.50;99.90;;;;;;5069055;28;20195;-69
2022/07/23 09:57:50;;;;;;;5.95;2.08;;;31.30;99.90;;;;;;5084394;28;20185;-69
2022/07/23 10:00:17;;;;;;;4.95;2.13;;;31.50;99.90;;;;;;5083556;28;20190;-65
2022/07/23 10:02:47;;;;;;;5.03;2.35;;;31.30;99.90;;;;;;5062275;28;20186;-65
2022/07/23 10:05:15;;;;;;;6.35;2.50;;;31.30;99.90;;;;;;5068688;28;20216;-65
2022/07/23 10:07:46;;;;;;;7.88;2.53;;;31.20;99.90;;;;;;5082363;28;20217;-65
2022/07/23 10:10:14;;;;;;;5.75;2.38;;;31.20;99.90;;;;;;5082323;28;20244;-65
2022/07/23 10:15:12;;;;;;;7.07;2.25;;;31.30;99.90;;;;;;5086753;28;20178;-65
2022/07/23 10:17:39;;;;;;;3.92;2.13;;;31.40;99.90;;;;;;5086548;28;20205;-65
2022/07/23 10:20:07;;;;;;;7.25;2.13;;;31.60;99.90;;;;;;5068696;28;20341;-68
2022/07/23 10:23:06;;;;;;;11.25;2.40;;;31.50;99.90;;;;;;5080372;28;20193;-65
2022/07/23 10:25:49;;;;;;;5.25;2.13;;;31.60;99.90;;;;;;5074054;28;20186;-64
2022/07/23 10:29:06;;;;;;;8.20;2.13;;;31.80;99.90;;;;;;5069946;28;20206;-68
2022/07/23 10:32:34;;;;;;;5.65;2.28;;;31.70;99.90;;;;;;5052100;28;20202;-67
2022/07/23 10:35:28;;;;;;;6.93;2.22;;;31.60;99.90;;;;;;4997729;28;20678;-65
2022/07/23 10:38:11;;;;;;;12.18;2.58;;;31.60;99.90;;;;;;5088247;28;20264;-64
2022/07/23 10:40:49;;;;;;;8.05;2.15;;;31.70;99.90;;;;;;5069364;28;20190;-66
2022/07/23 10:43:17;;;;;;;4.50;1.98;;;31.60;99.90;;;;;;5086524;28;20569;-66
2022/07/23 10:45:45;;;;;;;14.50;3.00;;;31.70;99.90;;;;;;5065812;28;20921;-66
2022/07/23 10:48:32;;;;;;;10.30;2.50;;;31.70;99.90;;;;;;5083518;28;20248;-65
2022/07/23 10:51:16;;;;;;;4.88;2.10;;;31.90;99.90;;;;;;5071077;28;20700;-67
2022/07/23 10:53:51;;;;;;;4.78;2.10;;;31.90;99.90;;;;;;5072203;28;20307;-66
2022/07/23 10:56:55;;;;;;;4.50;2.10;;;31.90;99.90;;;;;;5066203;28;20185;-65
2022/07/23 10:59:23;;;;;;;6.40;2.10;;;31.70;99.90;;;;;;5079095;28;20643;-66
2022/07/23 11:01:50;;;;;;;7.28;2.17;;;31.90;99.90;;;;;;5087046;28;20194;-68
2022/07/23 11:04:18;;;;;;;3.88;2.00;;;31.90;99.90;;;;;;5069338;28;20299;-66
2022/07/23 11:06:50;;;;;;;9.85;2.25;;;31.90;99.90;;;;;;5078146;28;20621;-64
2022/07/23 11:09:53;;;;;;;7.43;2.60;;;31.90;99.90;;;;;;5084830;28;20539;-65
2022/07/23 11:12:23;;;;;;;13.57;2.47;;;31.90;99.90;;;;;;5050795;28;20695;-65
2022/07/23 11:15:11;;;;;;;9.18;2.45;;;32.00;99.90;;;;;;5086753;28;20193;-68
2022/07/23 11:17:43;;;;;;;5.85;2.20;;;31.90;99.90;;;;;;5072912;28;20202;-67
2022/07/23 11:20:09;;;;;;;13.70;2.30;;;31.90;99.90;;;;;;5078062;28;20198;-64
2022/07/23 11:22:43;;;;;;;12.25;2.10;;;31.90;99.90;;;;;;5088028;28;20202;-66
2022/07/23 11:25:33;;;;;;;5.38;2.20;;;31.90;99.90;;;;;;5048983;28;20198;-66
2022/07/23 11:28:17;;;;;;;4.95;2.13;;;32.10;99.90;;;;;;5064879;28;20197;-65
2022/07/23 11:30:45;;;;;;;10.70;2.10;;;32.00;99.90;;;;;;5090210;28;20202;-64
2022/07/23 11:33:12;;;;;;;9.73;2.05;;;31.90;99.90;;;;;;5072048;28;20216;-67
2022/07/23 11:35:49;;;;;;;7.93;2.33;;;31.90;99.90;;;;;;5068741;28;20603;-67
2022/07/23 11:38:23;;;;;;;6.75;2.22;;;31.80;99.90;;;;;;5084535;28;20243;-67
2022/07/23 11:40:57;;;;;;;7.38;2.45;;;31.80;99.90;;;;;;5087245;28;20192;-65
2022/07/23 11:43:24;;;;;;;10.35;2.30;;;31.90;99.90;;;;;;5065568;28;20546;-67
2022/07/23 11:45:59;;;;;;;10.68;2.40;;;31.80;99.90;;;;;;5083933;28;20259;-65
2022/07/23 11:48:30;;;;;;;7.95;2.38;;;31.90;99.90;;;;;;5077311;28;20197;-65
2022/07/23 11:50:58;;;;;;;3.95;1.90;;;31.80;99.90;;;;;;5049136;28;20186;-68
2022/07/23 11:53:33;;;;;;;6.50;1.70;;;31.80;99.90;;;;;;5064462;28;20212;-66
2022/07/23 11:56:10;;;;;;;10.38;2.13;;;31.70;99.90;;;;;;5081418;28;20269;-68
2022/07/23 11:58:38;;;;;;;4.70;1.95;;;31.70;99.90;;;;;;5081328;28;20265;-67
2022/07/23 12:01:06;;;;;;;3.53;2.00;;;31.50;99.90;;;;;;5069222;28;20210;-66
2022/07/23 12:03:32;;;;;;;10.73;2.30;;;31.70;99.90;;;;;;5051496;28;20186;-69
2022/07/23 12:06:00;;;;;;;5.15;2.13;;;31.60;99.90;;;;;;5087021;28;20609;-68
2022/07/23 12:08:27;;;;;;;7.10;2.22;;;31.60;99.90;;;;;;5046295;28;20278;-65
2022/07/23 12:10:54;;;;;;;11.00;2.60;;;31.50;99.90;;;;;;5062654;28;20671;-65
2022/07/23 12:13:22;;;;;;;7.97;2.40;;;31.50;99.90;;;;;;5081915;28;20206;-65
2022/07/23 12:15:53;;;;;;;12.82;2.20;;;31.40;99.90;;;;;;5083356;28;20775;-67
2022/07/23 12:18:26;;;;;;;11.35;2.00;;;31.50;99.90;;;;;;5079387;28;20190;-67
2022/07/23 12:20:58;;;;;;;4.55;1.92;;;31.50;99.90;;;;;;5069258;28;20182;-64
2022/07/23 12:23:26;;;;;;;10.00;2.55;;;31.50;99.90;;;;;;5071351;28;20221;-66
2022/07/23 12:25:54;;;;;;;7.65;2.13;;;31.30;99.90;;;;;;5083099;28;20189;-66
2022/07/23 12:28:28;;;;;;;6.20;2.13;;;31.30;99.90;;;;;;5049183;28;20272;-66
2022/07/23 12:30:58;;;;;;;10.05;2.30;;;31.40;99.90;;;;;;5083703;28;20217;-65
2022/07/23 12:33:36;;;;;;;7.40;1.90;;;31.40;99.90;;;;;;5080841;28;20214;-66
2022/07/23 12:36:07;;;;;;;6.32;2.10;;;31.40;99.90;;;;;;5048011;28;20269;-65
2022/07/23 12:38:48;;;;;;;13.40;2.03;;;31.30;99.90;;;;;;5066859;28;20900;-67
2022/07/23 12:41:15;;;;;;;9.80;2.42;;;31.30;99.90;;;;;;5069582;28;20196;-65
2022/07/23 12:43:45;;;;;;;7.55;2.38;;;31.30;99.90;;;;;;5087600;28;20205;-67
2022/07/23 12:46:22;;;;;;;10.85;2.42;;;31.20;99.90;;;;;;5079798;28;20255;-66
2022/07/23 12:48:54;;;;;;;8.07;2.40;;;31.30;99.90;;;;;;5081884;28;20189;-67
2022/07/23 12:51:22;;;;;;;7.57;2.38;;;31.30;99.90;;;;;;5065589;28;20193;-65
2022/07/23 12:53:55;;;;;;;12.23;2.47;;;31.40;99.90;;;;;;5087257;28;20186;-69
2022/07/23 12:56:28;;;;;;;10.52;2.42;;;31.40;99.90;;;;;;5053706;28;20687;-64
2022/07/23 12:59:09;;;;;;;5.85;2.30;;;31.40;99.90;;;;;;5074149;28;20233;-65